Flight Track Log - Related Links

Times and Time Zones

All times are in EDT time to prevent confusion due to time zone crossing. See the N240JK flight status page for this flight to view local times or setup timezone preferences in your user account.

Time Position Orientation Groundspeed Altitude Reporting Facility
EDT Latitude Longitude Course Direction KTS MPH feet Rate Location/Type
Tue 13:34:59 27.9333 -82.7000 344° North 205 236 700  Level Tampa TRACON
Tue 13:35:47 27.9833 -82.7167 344° North 217 250 1,600 824 Climbing Tampa TRACON
Tue 13:36:41 28.0333 -82.7333 344° North 228 262 2,100 1,300 Climbing Tampa TRACON
Tue 13:37:47 28.1000 -82.7500 348° North 240 276 4,200 1,857 Climbing Tampa TRACON
Tue 13:38:47 28.1667 -82.7667 348° North 251 289 6,000 900 Climbing Tampa TRACON
Tue 13:39:47 28.2500 -82.8000 341° North 270 311 6,000 596 Level Tampa TRACON
Tue 13:41:18 28.3503 -82.8267 347° North 280 322 7,500 1,947 Climbing Jacksonville Center
Tue 13:42:18 28.4275 -82.8431 349° North 285 328 10,900 2,350 Climbing Jacksonville Center
Tue 13:43:18 28.5214 -82.8572 352° North 301 346 12,200 2,350 Climbing Jacksonville Center
Tue 13:44:18 28.6236 -82.8736 352° North 340 391 15,600 3,400 Climbing Jacksonville Center
Tue 13:45:18 28.7322 -82.8903 352° North 359 413 19,000 3,000 Climbing Jacksonville Center
Tue 13:46:18 28.8386 -82.9092 351° North 371 427 21,600 2,550 Climbing Jacksonville Center
Tue 13:47:18 28.9492 -82.9281 351° North 378 435 24,100 2,400 Climbing Jacksonville Center
Tue 13:48:18 29.0597 -82.9497 350° North 396 456 26,400 2,150 Climbing Jacksonville Center
Tue 13:49:18 29.1747 -82.9711 351° North 402 463 28,400 1,800 Climbing Jacksonville Center
Tue 13:50:18 29.2956 -82.9925 351° North 418 481 30,000 2,050 Climbing Jacksonville Center
Tue 13:51:18 29.4125 -83.0142 351° North 430 495 32,500 2,400 Climbing Jacksonville Center
Tue 13:52:18 29.5336 -83.0406 349° North 430 495 34,800 2,150 Climbing Jacksonville Center
Tue 13:53:18 29.6442 -83.0669 348° North 410 472 36,800 2,250 Climbing Jacksonville Center
Tue 13:54:18 29.7547 -83.1078 342° North 410 472 39,300 1,600 Climbing Jacksonville Center
Tue 13:55:18 29.8653 -83.1511 341° North 425 489 40,000 350 Climbing Jacksonville Center
Tue 13:56:18 29.9842 -83.1947 342° North 435 501 40,000  Level Jacksonville Center
Tue 13:57:18 30.0906 -83.2358 342° North 441 507 40,000  Level Jacksonville Center
Tue 13:58:18 30.2053 -83.2794 342° North 441 507 40,000  Level Jacksonville Center
Tue 13:59:18 30.3242 -83.3233 342° North 441 507 40,000  Level Jacksonville Center
Tue 14:00:18 30.4411 -83.3697 341° North 441 507 40,000  Level Jacksonville Center
Tue 14:01:18 30.5578 -83.4136 342° North 441 507 40,000  Level Jacksonville Center
Tue 14:02:18 30.6744 -83.4603 341° North 441 507 40,000  Level Jacksonville Center
Tue 14:03:18 30.7911 -83.5019 343° North 441 507 40,000  Level Jacksonville Center
Tue 14:04:18 30.9142 -83.5536 340° North 436 502 40,000  Level Jacksonville Center
Tue 14:06:48 31.2014 -83.6700 341° North 430 495 40,000  Level Atlanta Center
Tue 14:07:48 31.3183 -83.7131 343° North 430 495 40,000  Level Atlanta Center
Tue 14:08:48 31.4353 -83.7614 341° North 430 495 40,000  Level Atlanta Center
Tue 14:09:48 31.5461 -83.8097 340° North 435 501 40,000  Level Atlanta Center
Tue 14:10:48 31.6567 -83.8461 344° North 435 501 40,000  Level Atlanta Center
Tue 14:11:48 31.7944 -83.9069 339° North 468 539 40,000  Level Atlanta Center
Tue 14:12:48 31.9136 -83.9508 343° North 463 533 40,000  Level Atlanta Center
Tue 14:13:48 32.0306 -83.9972 341° North 453 521 40,000  Level Atlanta Center
Tue 14:14:48 32.1369 -84.0389 342° North 446 513 40,000  Level Atlanta Center
Tue 14:15:48 32.2539 -84.0856 341° North 441 507 40,000  Level Atlanta Center
Tue 14:16:48 32.3706 -84.1347 340° North 441 507 40,000  Level Atlanta Center
Tue 14:17:48 32.4875 -84.1792 342° North 441 507 40,000  Level Atlanta Center
Tue 14:18:47 32.6044 -84.2261 341° North 441 507 40,000  Level Atlanta Center
Tue 14:19:48 32.7211 -84.2758 340° North 441 507 40,000  Level Atlanta Center
Tue 14:20:48 32.8442 -84.3256 341° North 435 501 40,000  Level Atlanta Center
Tue 14:21:48 32.9589 -84.3731 341° North 435 501 40,000  Level Atlanta Center
Tue 14:22:48 33.0778 -84.4231 341° North 435 501 40,000  Level Atlanta Center
Tue 14:23:48 33.1922 -84.4708 341° North 435 501 40,000  Level Atlanta Center
Tue 14:24:48 33.2967 -84.5136 341° North 440 506 40,000  Level Atlanta Center
Tue 14:25:48 33.4133 -84.5614 341° North 440 506 40,000  Level Atlanta Center
Tue 14:26:48 33.5300 -84.6094 341° North 440 506 40,000  Level Atlanta Center
Tue 14:27:48 33.6486 -84.6578 341° North 446 513 40,000  Level Atlanta Center
Tue 14:28:48 33.7653 -84.7036 342° North 446 513 40,000  Level Atlanta Center
Tue 14:29:48 33.8797 -84.7544 340° North 446 513 40,000  Level Atlanta Center
Tue 14:30:48 34.0006 -84.8056 341° North 446 513 40,000  Level Atlanta Center
Tue 14:31:48 34.1317 -84.8594 341° North 451 519 40,000  Level Atlanta Center
Tue 14:32:48 34.2503 -84.9058 342° North 451 519 40,000  Level Atlanta Center
Tue 14:33:48 34.3669 -84.9522 342° North 446 513 40,000  Level Atlanta Center
Tue 14:34:48 34.4708 -84.9961 341° North 440 506 40,000  Level Atlanta Center
Tue 14:35:48 34.5894 -85.0481 340° North 446 513 40,000  Level Atlanta Center
Tue 14:36:48 34.7017 -85.0975 340° North 440 506 40,000  Level Atlanta Center
Tue 14:37:48 34.8181 -85.1469 341° North 435 501 40,000  Level Atlanta Center
Tue 14:38:48 34.9450 -85.1992 341° North 435 501 40,000  Level Atlanta Center
Tue 14:40:49 35.1625 -85.2925 341° North 434 499 40,000  Level Memphis Center
Tue 14:41:49 35.2772 -85.3442 340° North 434 499 40,000  Level Memphis Center
Tue 14:42:49 35.4061 -85.3822 346° North 434 499 40,000  Level Memphis Center
Tue 14:43:49 35.5306 -85.4156 348° North 440 506 40,000  Level Memphis Center
Tue 14:44:49 35.6528 -85.4492 347° North 440 506 40,000  Level Memphis Center
Tue 14:45:49 35.7772 -85.4853 347° North 440 506 40,000  Level Memphis Center
Tue 14:46:49 35.8994 -85.5189 347° North 445 512 40,000  Level Memphis Center
Tue 14:47:49 36.0217 -85.5553 346° North 445 512 40,000  Level Memphis Center
Tue 14:48:49 36.1442 -85.5944 346° North 445 512 40,000  Level Memphis Center
Tue 14:49:24 36.2175 -85.6156 347° North 452 520 40,000  Level Indianapolis Center
Tue 14:50:25 36.3425 -85.6497 348° North 457 526 40,000  Level Indianapolis Center
Tue 14:51:27 36.4711 -85.6553 358° North 467 537 40,000  Level Indianapolis Center
Tue 14:52:29 36.6014 -85.6506 North 468 539 40,000  Level Indianapolis Center
Tue 14:53:31 36.7311 -85.6503 360° North 466 536 40,000  Level Indianapolis Center
Tue 14:54:32 36.8711 -85.6500 360° North 468 539 40,000  Level Indianapolis Center
Tue 14:55:34 37.0014 -85.6514 360° North 465 535 40,000  Level Indianapolis Center
Tue 14:56:36 37.1328 -85.6500 360° North 468 539 40,000  Level Indianapolis Center
Tue 14:57:38 37.2639 -85.6506 360° North 468 539 40,000  Level Indianapolis Center
Tue 14:58:40 37.3892 -85.6522 359° North 467 537 40,000  Level Indianapolis Center
Tue 14:59:41 37.5450 -85.6556 359° North 464 534 40,000  Level Indianapolis Center
Tue 15:00:43 37.6728 -85.6644 357° North 462 532 40,000  Level Indianapolis Center
Tue 15:01:45 37.8006 -85.6703 358° North 459 528 40,000  Level Indianapolis Center
Tue 15:02:47 37.9289 -85.6803 356° North 461 531 40,000  Level Indianapolis Center
Tue 15:03:49 38.0569 -85.6931 356° North 460 529 40,000  Level Indianapolis Center
Tue 15:04:51 38.1828 -85.7217 350° North 461 531 40,000  Level Indianapolis Center
Tue 15:05:53 38.2919 -85.7964 332° Northwest 446 513 40,000  Level Indianapolis Center
Tue 15:06:55 38.4197 -85.8919 330° Northwest 447 514 40,000  Level Indianapolis Center
Tue 15:07:57 38.5278 -85.9692 331° Northwest 446 513 40,000  Level Indianapolis Center
Tue 15:08:58 38.6375 -86.0492 330° Northwest 451 519 40,000  Level Indianapolis Center
Tue 15:10:00 38.7447 -86.1306 329° Northwest 450 518 40,000  Level Indianapolis Center
Tue 15:11:02 38.8511 -86.2103 330° Northwest 445 512 40,000  Level Indianapolis Center
Tue 15:12:04 38.9739 -86.3028 330° Northwest 445 512 40,000  Level Indianapolis Center
Tue 15:13:06 39.0808 -86.3828 330° Northwest 444 511 40,000  Level Indianapolis Center
Tue 15:14:08 39.1872 -86.4647 329° Northwest 444 511 40,000  Level Indianapolis Center
Tue 15:15:10 39.2953 -86.5453 330° Northwest 446 513 40,000  Level Indianapolis Center
Tue 15:16:13 39.4025 -86.6269 330° Northwest 445 512 40,000  Level Indianapolis Center
Tue 15:17:15 39.5103 -86.7086 330° Northwest 446 513 40,000  Level Indianapolis Center
Tue 15:18:17 39.6181 -86.7911 329° Northwest 447 514 40,000  Level Indianapolis Center
Tue 15:19:19 39.7475 -86.8908 329° Northwest 447 514 40,000  Level Indianapolis Center
Tue 15:20:21 39.8553 -86.9731 330° Northwest 448 516 40,000  Level Indianapolis Center
Tue 15:21:23 39.9628 -87.0567 329° Northwest 449 517 40,000  Level Indianapolis Center
Tue 15:22:25 40.0708 -87.1397 330° Northwest 450 518 40,000  Level Indianapolis Center
Tue 15:23:27 40.1781 -87.2242 329° Northwest 450 518 40,000  Level Indianapolis Center
Tue 15:24:29 40.2861 -87.3069 330° Northwest 450 518 40,000 -629 Level Indianapolis Center
Tue 15:25:31 40.3942 -87.3911 329° Northwest 452 520 38,700 -1,500 Descending Indianapolis Center
Tue 15:26:33 40.5242 -87.4947 329° Northwest 456 525 36,900 -1,597 Descending Indianapolis Center
Tue 15:27:35 40.6344 -87.5839 328° Northwest 464 534 35,400 -1,452 Descending Indianapolis Center
Tue 15:28:37 40.7453 -87.6708 329° Northwest 464 534 33,900 -1,161 Descending Indianapolis Center
Tue 15:29:39 40.8547 -87.7586 329° Northwest 461 531 33,000 -435 Descending Indianapolis Center
Tue 15:30:41 40.9625 -87.8456 329° Northwest 456 525 33,000  Level Indianapolis Center
Tue 15:31:52 41.1086 -87.9622 329° Northwest 454 522 33,000  Level Chicago Center
Tue 15:32:54 41.2197 -88.0519 329° Northwest 462 532 33,000 -677 Level Chicago Center
Tue 15:33:56 41.3306 -88.1439 328° Northwest 464 534 31,600 -1,548 Descending Chicago Center
Tue 15:34:58 41.4431 -88.2344 329° Northwest 457 526 29,800 -2,304 Descending Chicago Center
Tue 15:36:01 41.5489 -88.3156 330° Northwest 438 504 26,800 -2,688 Descending Chicago Center
Tue 15:37:03 41.6686 -88.3136 North 431 496 24,200 -1,355 Descending Chicago Center
Tue 15:38:05 41.7850 -88.3133 360° North 420 483 24,000 -532 Descending Chicago Center
Tue 15:39:07 41.9033 -88.3122 360° North 424 488 23,100 -1,355 Descending Chicago Center
Tue 15:40:09 42.0478 -88.3122 360° North 433 498 21,200 -1,694 Descending Chicago Center
Tue 15:41:11 42.1681 -88.3111 360° North 433 498 19,600 -1,597 Descending Chicago Center
Tue 15:42:13 42.2900 -88.3094 North 436 502 17,900 -1,306 Descending Chicago Center
Tue 15:43:15 42.4111 -88.3075 North 428 493 16,900 -1,258 Descending Chicago Center
Tue 15:44:17 42.5178 -88.3067 360° North 383 441 15,300 -2,419 Descending Chicago Center
Tue 15:45:19 42.6297 -88.3042 North 348 400 11,900 -3,000 Descending Chicago Center
Tue 15:46:21 42.7158 -88.2933 North 312 359 9,100 -2,592 Descending Chicago Center
Tue 15:47:24 42.7967 -88.2794 North 293 337 6,500 -2,496 Descending Chicago Center
Tue 15:48:26 42.8758 -88.2667 North 287 330 3,900 -1,694 Descending Chicago Center
Tue 15:49:28 42.9481 -88.2517 North 276 318 3,000 -726 Descending Chicago Center
Tue 15:50:30 42.9975 -88.1967 39° Northeast 232 267 2,400 -435 Descending Chicago Center
Tue 15:51:32 43.0197 -88.1572 52° Northeast 188 216 2,100 -484 Descending Chicago Center
Tue 15:52:34 43.0361 -88.1994 298° West 153 176 1,400 -387 Descending Chicago Center
Tue 15:53:36 43.0383 -88.2525 273° West 152 175 1,300 -97 Descending Chicago Center
Tue 15:55:00 43.0333 -88.2333 North  Level FlightAware Approximate

Login

Don't have an account? Register now (free) for customized features, flight alerts, and more!